ZSSS/SHA METAR and TAF weather

Enter ICAO airport designator
Station Type Date Time Source
ZSSS METAR 2019/10/15 04:30 UTC NOAA

ZSSS 150430Z 36007MPS CAVOK 19/07 Q1029 NOSIG


Station Type Date Time Source
ZSSS Decoded METAR 2019/10/15 04:30 UTC NOAA

Shanghai / Hongqiao, China (ZSSS) 31-10N 121-26E 3M
Oct 15, 2019 - 12:30 AM EDT / 2019.10.15 0430 UTC
Wind: from the N (360 degrees) at 16 MPH (14 KT):0
Visibility: greater than 7 mile(s):0
Temperature: 66 F (19 C)
Dew Point: 44 F (7 C)
Relative Humidity: 45%
Pressure (altimeter): 30.39 in. Hg (1029 hPa)
ob: ZSSS 150430Z 36007MPS CAVOK 19/07 Q1029 NOSIG
cycle: 4

Station Type Date Time Source
ZSSS TAF 2019/10/15 06:03 UTC NOAA

TAF ZSSS 150312Z 1506/1606 36006G11MPS 6000 BKN040 TX20/1506Z TN16/1520Z

Example: see airport list